Time;durP1;ratioP1;P1;durP2;ratioP2;P2;SDS_P1;SDS_P2;PMS_P1;PMS_P2;Temp;Humidity;BMP_temperature;BMP_pressure;BME280_temperature;BME280_humidity;BME280_pressure;Samples;Min_cycle;Max_cycle;Signal;HPM_P1;HPM_P2
2023/08/29 00:01:07;;;;;;;4.45;3.05;;;15.90;72.60;;;;;;5089615;28;20031;-92
2023/08/29 00:03:33;;;;;;;3.90;3.40;;;15.90;72.70;;;;;;5087776;28;20023;-92
2023/08/29 00:06:03;;;;;;;5.30;3.10;;;15.80;72.80;;;;;;5088075;28;20024;-92
2023/08/29 00:08:30;;;;;;;3.22;2.90;;;15.80;73.10;;;;;;5086710;28;20482;-92
2023/08/29 00:10:56;;;;;;;4.50;3.10;;;16.00;73.20;;;;;;5097621;28;20454;-92
2023/08/29 00:13:23;;;;;;;3.53;2.83;;;15.70;73.10;;;;;;5091245;28;20518;-92
2023/08/29 00:15:50;;;;;;;3.58;3.05;;;15.70;73.20;;;;;;5097521;28;20030;-91
2023/08/29 00:18:16;;;;;;;4.43;3.38;;;15.80;73.40;;;;;;5092094;28;20028;-92
2023/08/29 00:20:41;;;;;;;3.70;2.95;;;15.70;73.20;;;;;;5082798;28;20536;-92
2023/08/29 00:23:10;;;;;;;4.28;3.08;;;15.70;73.10;;;;;;5097259;28;20031;-92
2023/08/29 00:25:36;;;;;;;3.00;2.75;;;15.70;73.10;;;;;;5087700;28;20031;-91
2023/08/29 00:28:03;;;;;;;3.05;2.80;;;15.70;73.20;;;;;;5097083;28;20085;-91
2023/08/29 00:30:35;;;;;;;8.50;3.30;;;15.70;73.30;;;;;;5088793;28;20054;-91
2023/08/29 00:33:01;;;;;;;5.03;3.05;;;15.70;73.50;;;;;;5084677;28;20058;-92
2023/08/29 00:35:27;;;;;;;7.45;2.80;;;15.70;73.30;;;;;;5097515;28;20027;-91
2023/08/29 00:37:53;;;;;;;5.57;3.38;;;15.80;73.60;;;;;;5094012;28;20034;-91
2023/08/29 00:40:19;;;;;;;3.50;3.20;;;15.70;73.70;;;;;;5089167;28;20361;-91
2023/08/29 00:42:44;;;;;;;3.42;3.13;;;15.70;73.60;;;;;;5103724;28;20019;-91
2023/08/29 00:45:10;;;;;;;3.33;2.90;;;15.80;73.40;;;;;;5105017;28;20103;-88
2023/08/29 00:47:37;;;;;;;3.92;2.92;;;15.70;73.40;;;;;;5116574;28;20024;-92
2023/08/29 00:50:05;;;;;;;4.38;2.95;;;15.70;73.70;;;;;;5117195;28;20042;-96
2023/08/29 00:52:31;;;;;;;6.15;2.97;;;15.80;73.80;;;;;;5099601;28;20554;-92
2023/08/29 00:54:57;;;;;;;3.97;2.83;;;15.60;73.40;;;;;;5096330;28;20058;-92
2023/08/29 00:57:23;;;;;;;3.58;2.97;;;15.60;73.40;;;;;;5089779;28;20027;-92
2023/08/29 00:59:49;;;;;;;3.03;2.72;;;15.80;73.70;;;;;;5097654;28;20394;-90
2023/08/29 01:02:15;;;;;;;2.90;2.70;;;16.00;74.40;;;;;;5098232;28;20031;-92
2023/08/29 01:04:41;;;;;;;4.70;3.33;;;15.70;73.50;;;;;;5082642;28;20035;-91
2023/08/29 01:07:11;;;;;;;4.03;2.80;;;15.80;73.60;;;;;;5088368;28;20027;-92
2023/08/29 01:09:38;;;;;;;5.85;3.05;;;15.80;73.90;;;;;;5085466;28;20028;-91
2023/08/29 01:12:10;;;;;;;3.60;2.78;;;15.80;73.80;;;;;;5097563;28;20023;-94
2023/08/29 01:14:44;;;;;;;5.65;3.05;;;15.80;73.80;;;;;;5099841;28;20028;-91
2023/08/29 01:17:22;;;;;;;3.53;3.03;;;15.60;73.90;;;;;;5091610;28;20028;-91
2023/08/29 01:19:52;;;;;;;4.72;2.75;;;15.80;74.00;;;;;;5084135;28;20483;-91
2023/08/29 01:22:57;;;;;;;4.00;2.50;;;15.80;73.80;;;;;;5098444;28;20024;-91
2023/08/29 01:26:05;;;;;;;3.38;2.72;;;15.80;74.40;;;;;;5098352;28;20032;-91
2023/08/29 01:28:32;;;;;;;5.00;2.78;;;15.80;74.50;;;;;;5095464;28;20036;-91
2023/08/29 01:30:59;;;;;;;3.13;2.90;;;15.70;73.80;;;;;;5094747;28;20044;-92
2023/08/29 01:33:26;;;;;;;4.97;2.78;;;15.60;73.60;;;;;;5074811;28;20033;-92
2023/08/29 01:46:37;;;;;;;3.42;2.90;;;15.70;74.30;;;;;;5097023;28;20023;-92
2023/08/29 01:49:03;;;;;;;4.60;3.35;;;15.60;74.50;;;;;;5079107;28;20039;-93
2023/08/29 01:51:29;;;;;;;4.30;2.92;;;15.60;73.80;;;;;;5095710;28;20460;-92
2023/08/29 01:54:24;;;;;;;4.00;3.22;;;15.50;73.80;;;;;;5095861;28;20581;-93
2023/08/29 11:32:16;;;;;;;0.80;0.80;;;18.80;71.10;;;;;;5099587;28;20747;-93
2023/08/29 11:34:42;;;;;;;1.58;0.75;;;18.90;71.40;;;;;;5096690;28;20042;-92
2023/08/29 11:37:12;;;;;;;3.00;1.23;;;18.90;70.70;;;;;;5105238;28;20108;-93
2023/08/29 11:39:38;;;;;;;1.00;0.90;;;18.80;70.70;;;;;;5105454;28;20459;-89
2023/08/29 11:42:04;;;;;;;1.60;0.90;;;18.90;70.50;;;;;;5094187;28;20114;-94
2023/08/29 11:54:56;;;;;;;2.63;0.90;;;19.00;70.40;;;;;;5124507;28;20046;-92
2023/08/29 12:00:43;;;;;;;0.90;0.80;;;19.00;70.00;;;;;;5103887;28;20049;-94
2023/08/29 12:03:09;;;;;;;1.52;1.42;;;19.00;70.50;;;;;;5099416;28;20027;-93
2023/08/29 12:05:35;;;;;;;1.55;1.00;;;19.00;71.40;;;;;;5098404;28;20045;-96
2023/08/29 12:08:04;;;;;;;1.33;1.00;;;19.00;71.20;;;;;;5090754;28;20036;-96
2023/08/29 12:10:30;;;;;;;1.90;1.30;;;18.90;71.30;;;;;;5093723;28;20099;-95
2023/08/29 12:12:56;;;;;;;1.35;0.77;;;19.10;71.20;;;;;;5099203;28;20058;-95
2023/08/29 12:15:34;;;;;;;0.75;0.75;;;19.10;71.00;;;;;;5088509;28;20055;-96
2023/08/29 12:18:00;;;;;;;0.80;0.70;;;19.20;70.80;;;;;;5093615;28;20059;-95
2023/08/29 12:20:28;;;;;;;1.92;0.68;;;19.20;70.70;;;;;;5092796;28;20403;-93
2023/08/29 12:22:54;;;;;;;1.08;0.68;;;19.30;71.10;;;;;;5080235;28;20024;-94
2023/08/29 12:25:25;;;;;;;3.67;0.82;;;19.40;70.40;;;;;;5117729;28;20007;-96
2023/08/29 12:31:33;;;;;;;2.10;0.80;;;19.60;70.20;;;;;;5134080;28;20098;-96
2023/08/29 12:33:59;;;;;;;0.70;0.70;;;19.60;69.20;;;;;;5098203;28;20080;-94
2023/08/29 12:40:37;;;;;;;0.80;0.70;;;19.70;68.40;;;;;;5109246;28;20085;-93
2023/08/29 12:43:06;;;;;;;1.60;0.70;;;19.70;68.30;;;;;;5110492;28;20115;-95
2023/08/29 12:46:09;;;;;;;0.82;0.60;;;19.70;68.60;;;;;;5110567;28;20047;-95
2023/08/29 12:48:35;;;;;;;0.80;0.70;;;19.60;68.50;;;;;;5088874;28;20056;-95
2023/08/29 12:51:02;;;;;;;1.50;0.90;;;19.60;68.60;;;;;;5093213;28;20031;-95
2023/08/29 12:53:29;;;;;;;1.33;0.70;;;19.60;68.50;;;;;;5103270;28;20027;-94
2023/08/29 12:55:54;;;;;;;2.05;0.88;;;19.60;68.80;;;;;;5101037;28;20118;-95
2023/08/29 12:58:20;;;;;;;2.33;0.70;;;19.60;68.50;;;;;;5121652;28;20066;-95
2023/08/29 13:00:47;;;;;;;0.93;0.80;;;19.60;68.10;;;;;;5094327;28;20039;-95
2023/08/29 13:03:12;;;;;;;1.40;0.80;;;19.60;68.40;;;;;;5098385;28;20031;-94
2023/08/29 13:05:38;;;;;;;1.55;0.90;;;19.60;68.50;;;;;;5092645;28;20123;-93
2023/08/29 13:08:05;;;;;;;0.80;0.75;;;19.50;68.70;;;;;;5085751;28;20035;-94
2023/08/29 13:10:30;;;;;;;2.58;0.75;;;19.80;69.10;;;;;;5095721;28;20016;-95
2023/08/29 13:12:57;;;;;;;1.73;0.93;;;19.70;68.70;;;;;;5099037;28;20043;-95
2023/08/29 13:15:23;;;;;;;1.75;1.20;;;19.60;68.90;;;;;;5085264;28;20023;-96
2023/08/29 13:17:50;;;;;;;1.30;0.90;;;19.70;68.60;;;;;;5083706;28;20023;-94
2023/08/29 13:20:16;;;;;;;1.85;1.08;;;19.70;68.00;;;;;;5088674;28;20036;-94
2023/08/29 13:22:45;;;;;;;2.45;1.55;;;19.70;67.80;;;;;;5094046;28;20481;-95
2023/08/29 13:25:11;;;;;;;1.30;1.10;;;19.60;67.30;;;;;;5094239;28;20051;-93
2023/08/29 13:27:37;;;;;;;1.58;1.00;;;19.70;68.30;;;;;;5094760;28;20091;-95
2023/08/29 13:30:04;;;;;;;1.00;0.90;;;19.60;67.80;;;;;;5103954;28;20027;-94
2023/08/29 13:32:34;;;;;;;1.00;0.75;;;19.40;68.10;;;;;;5102802;28;20036;-94
2023/08/29 13:35:00;;;;;;;0.90;0.90;;;19.50;68.30;;;;;;5096732;28;20027;-94
2023/08/29 13:37:26;;;;;;;1.10;1.00;;;19.50;68.30;;;;;;5095553;28;20024;-94
2023/08/29 13:39:56;;;;;;;1.58;0.90;;;19.50;68.30;;;;;;5095272;28;20039;-94
2023/08/29 13:42:22;;;;;;;1.35;1.02;;;19.50;68.20;;;;;;5094656;28;20024;-94
2023/08/29 13:44:49;;;;;;;2.53;1.10;;;19.40;68.10;;;;;;5106515;28;20034;-94
2023/08/29 13:47:15;;;;;;;6.18;1.20;;;19.50;68.40;;;;;;5102146;28;20049;-94
2023/08/29 13:49:41;;;;;;;1.35;0.98;;;19.50;67.80;;;;;;5100245;28;20080;-95
2023/08/29 13:52:08;;;;;;;1.58;0.90;;;19.40;68.10;;;;;;5106874;28;20486;-94
2023/08/29 13:54:34;;;;;;;0.93;0.90;;;19.40;68.50;;;;;;5100089;28;20024;-94
2023/08/29 13:57:01;;;;;;;1.48;0.80;;;19.40;68.80;;;;;;5108346;28;20024;-93
2023/08/29 13:59:27;;;;;;;1.65;0.85;;;19.40;68.30;;;;;;5097750;28;20043;-94
2023/08/29 14:01:53;;;;;;;0.93;0.70;;;19.50;68.00;;;;;;5097497;28;20222;-94
2023/08/29 14:04:19;;;;;;;1.10;0.80;;;19.50;67.70;;;;;;5091753;28;20024;-90
2023/08/29 14:06:45;;;;;;;2.08;0.98;;;19.40;67.90;;;;;;5097502;28;20028;-95
2023/08/29 14:09:11;;;;;;;3.10;1.48;;;19.50;68.10;;;;;;5100988;28;20374;-95
2023/08/29 14:11:37;;;;;;;3.15;1.02;;;19.50;68.10;;;;;;5096180;28;20042;-95
2023/08/29 14:14:03;;;;;;;2.83;0.90;;;19.50;67.70;;;;;;5091003;28;20032;-96
2023/08/29 14:16:29;;;;;;;0.82;0.80;;;19.40;67.90;;;;;;5098807;28;20053;-94
2023/08/29 14:18:55;;;;;;;1.80;1.00;;;19.40;67.90;;;;;;5098953;28;20454;-94
2023/08/29 14:21:21;;;;;;;1.52;0.98;;;19.40;68.60;;;;;;5102108;28;20031;-94
2023/08/29 14:23:47;;;;;;;1.60;0.95;;;19.40;68.00;;;;;;5095060;28;20031;-94
2023/08/29 14:26:13;;;;;;;2.53;0.90;;;19.40;68.00;;;;;;5092988;28;20104;-96
2023/08/29 14:28:39;;;;;;;0.80;0.70;;;19.40;68.10;;;;;;5104132;28;20375;-95
2023/08/29 14:31:05;;;;;;;0.85;0.75;;;19.40;67.80;;;;;;5123885;28;20447;-94
2023/08/29 14:33:31;;;;;;;1.33;0.80;;;19.40;67.90;;;;;;5100981;28;20052;-95
2023/08/29 14:35:57;;;;;;;4.38;0.90;;;19.40;67.70;;;;;;5097395;28;20031;-93
2023/08/29 14:38:23;;;;;;;0.85;0.82;;;19.30;68.00;;;;;;5096439;28;20039;-92
2023/08/29 14:40:49;;;;;;;2.30;0.98;;;19.30;67.90;;;;;;5097323;28;20036;-93
2023/08/29 14:43:15;;;;;;;2.58;1.25;;;19.20;68.30;;;;;;5091374;28;20027;-93
2023/08/29 14:45:41;;;;;;;1.85;1.00;;;19.20;68.60;;;;;;5093427;28;20128;-93
2023/08/29 14:48:08;;;;;;;1.70;0.88;;;19.10;69.10;;;;;;5099037;28;20378;-94
2023/08/29 14:50:34;;;;;;;1.52;1.10;;;19.20;68.60;;;;;;5096580;28;20028;-93
2023/08/29 14:53:03;;;;;;;2.45;1.08;;;19.20;68.70;;;;;;5090773;28;20122;-93
2023/08/29 14:55:29;;;;;;;2.13;0.90;;;19.20;68.80;;;;;;5092333;28;20111;-93
2023/08/29 14:57:58;;;;;;;1.60;1.00;;;19.20;68.80;;;;;;5095933;28;20063;-93
2023/08/29 15:00:24;;;;;;;1.27;0.90;;;19.20;68.50;;;;;;5094453;28;20118;-93
2023/08/29 15:02:49;;;;;;;1.25;0.90;;;19.20;68.20;;;;;;5089792;28;20074;-92
2023/08/29 15:05:15;;;;;;;3.17;0.90;;;19.20;68.30;;;;;;5093811;28;20032;-92
2023/08/29 15:07:41;;;;;;;2.28;1.10;;;19.20;68.40;;;;;;5081846;28;20048;-92
2023/08/29 15:10:07;;;;;;;2.78;1.15;;;19.20;68.40;;;;;;5087234;28;22597;-91
2023/08/29 15:12:33;;;;;;;1.83;1.00;;;19.20;68.50;;;;;;5083111;28;20028;-92
2023/08/29 15:15:00;;;;;;;1.85;0.90;;;19.10;68.70;;;;;;5082493;28;20034;-92
2023/08/29 15:17:26;;;;;;;3.63;0.95;;;19.10;68.70;;;;;;5082357;28;20023;-93
2023/08/29 15:19:51;;;;;;;1.55;1.00;;;19.10;68.50;;;;;;5088583;28;20040;-94
2023/08/29 15:22:17;;;;;;;2.70;1.02;;;19.10;68.60;;;;;;5089664;28;20028;-93
2023/08/29 15:24:43;;;;;;;1.40;1.10;;;19.00;68.60;;;;;;5085894;28;20035;-94
2023/08/29 15:27:09;;;;;;;0.90;0.90;;;19.00;68.60;;;;;;5084880;28;20046;-94
2023/08/29 15:29:34;;;;;;;1.48;1.25;;;18.90;68.80;;;;;;5087881;28;20035;-94
2023/08/29 15:32:00;;;;;;;1.63;1.10;;;19.00;69.40;;;;;;5082612;28;20111;-93
2023/08/29 15:34:26;;;;;;;1.30;1.20;;;19.00;70.10;;;;;;5083201;28;20035;-94
2023/08/29 15:36:52;;;;;;;3.00;1.30;;;19.00;70.40;;;;;;5087420;28;20020;-93
2023/08/29 15:39:18;;;;;;;1.92;1.02;;;19.00;70.40;;;;;;5085367;28;20055;-93
2023/08/29 15:41:43;;;;;;;2.20;1.17;;;19.00;70.00;;;;;;5091384;28;20053;-93
2023/08/29 15:44:09;;;;;;;2.22;1.20;;;19.00;69.70;;;;;;5086856;28;20065;-92
2023/08/29 15:46:35;;;;;;;2.35;1.38;;;19.10;69.80;;;;;;5086754;28;20034;-93
2023/08/29 15:49:01;;;;;;;2.83;1.38;;;19.00;69.70;;;;;;5083755;28;20408;-93
2023/08/29 15:51:26;;;;;;;3.25;1.15;;;19.00;69.30;;;;;;5091375;28;20023;-94
2023/08/29 15:53:53;;;;;;;1.42;1.20;;;19.00;69.30;;;;;;5082498;28;20027;-93
2023/08/29 15:56:19;;;;;;;2.80;1.27;;;18.90;69.50;;;;;;5088983;28;20028;-91
2023/08/29 15:58:44;;;;;;;2.20;1.20;;;18.90;69.80;;;;;;5083598;28;20034;-93
2023/08/29 16:01:10;;;;;;;3.80;1.10;;;18.90;70.20;;;;;;5092963;28;20059;-93
2023/08/29 16:03:36;;;;;;;1.33;0.90;;;18.90;70.20;;;;;;5096288;28;20028;-93
2023/08/29 16:06:05;;;;;;;4.97;1.05;;;18.90;69.90;;;;;;5098667;28;20028;-93
2023/08/29 16:08:33;;;;;;;1.60;1.00;;;18.80;69.80;;;;;;5095999;28;20023;-93
2023/08/29 16:10:59;;;;;;;2.17;0.90;;;18.80;69.70;;;;;;5085876;28;20101;-94
2023/08/29 16:13:24;;;;;;;1.38;1.00;;;18.80;69.40;;;;;;5092462;28;20028;-93
2023/08/29 16:15:57;;;;;;;3.33;0.95;;;18.60;69.50;;;;;;5095876;28;20514;-94
2023/08/29 16:18:23;;;;;;;1.30;1.10;;;18.60;70.00;;;;;;5087116;28;20119;-93
2023/08/29 16:20:53;;;;;;;1.23;1.00;;;18.60;69.90;;;;;;5106214;28;20035;-96
2023/08/29 16:23:19;;;;;;;4.28;1.77;;;18.50;70.30;;;;;;5113524;28;20039;-93
2023/08/29 16:25:45;;;;;;;1.67;1.15;;;18.40;70.40;;;;;;5106201;28;20019;-93
2023/08/29 16:28:12;;;;;;;1.95;1.30;;;18.60;70.70;;;;;;5110324;28;20095;-95
2023/08/29 16:30:38;;;;;;;3.25;1.08;;;18.40;70.70;;;;;;5112976;28;20048;-92
2023/08/29 16:33:06;;;;;;;1.95;1.02;;;18.40;71.10;;;;;;5101108;28;20130;-93
2023/08/29 16:35:33;;;;;;;3.92;1.40;;;18.40;70.90;;;;;;5101402;28;20032;-92
2023/08/29 16:38:03;;;;;;;1.35;1.13;;;18.40;71.20;;;;;;5098745;28;20034;-93
2023/08/29 16:40:30;;;;;;;4.10;1.38;;;18.40;71.20;;;;;;5093619;28;20058;-93
2023/08/29 16:42:56;;;;;;;1.40;1.30;;;18.40;71.10;;;;;;5088272;28;20027;-93
2023/08/29 16:45:25;;;;;;;2.45;1.38;;;18.40;71.30;;;;;;5093721;28;20038;-94
2023/08/29 16:47:53;;;;;;;1.40;1.30;;;18.30;71.20;;;;;;5096907;28;20031;-94
2023/08/29 16:50:18;;;;;;;1.35;1.20;;;18.30;71.50;;;;;;5094530;28;20034;-94
2023/08/29 16:52:44;;;;;;;1.85;1.40;;;18.30;71.50;;;;;;5090348;28;20032;-94
2023/08/29 16:55:10;;;;;;;2.28;1.80;;;18.20;71.50;;;;;;5097078;28;20047;-93
2023/08/29 16:57:36;;;;;;;2.13;1.45;;;18.20;71.90;;;;;;5094872;28;20031;-93
2023/08/29 17:00:06;;;;;;;2.55;2.08;;;18.20;72.50;;;;;;5094513;28;20471;-94
2023/08/29 17:02:32;;;;;;;2.80;1.70;;;18.20;71.70;;;;;;5088974;28;20573;-93
2023/08/29 17:04:58;;;;;;;2.95;1.85;;;18.20;71.70;;;;;;5086227;28;20028;-93
2023/08/29 17:07:24;;;;;;;2.15;1.80;;;18.10;71.70;;;;;;5080706;28;20054;-95
2023/08/29 17:09:51;;;;;;;2.22;1.70;;;18.10;71.60;;;;;;5080027;28;20390;-93
2023/08/29 17:12:22;;;;;;;1.77;1.67;;;18.00;71.80;;;;;;5082255;28;20031;-92
2023/08/29 17:14:51;;;;;;;3.15;1.83;;;18.00;72.30;;;;;;5099571;28;20061;-93
2023/08/29 17:17:18;;;;;;;2.22;1.63;;;18.00;72.10;;;;;;5101601;28;20114;-93
2023/08/29 17:19:44;;;;;;;2.45;2.10;;;18.00;72.30;;;;;;5097146;28;20098;-95
2023/08/29 17:22:10;;;;;;;3.42;2.03;;;18.00;72.40;;;;;;5107282;28;20114;-93
2023/08/29 17:24:36;;;;;;;4.32;2.38;;;17.90;72.20;;;;;;5091955;28;20031;-93
2023/08/29 17:27:02;;;;;;;2.25;2.05;;;17.90;72.50;;;;;;5105208;28;20039;-93
2023/08/29 17:29:29;;;;;;;2.28;1.92;;;17.80;72.30;;;;;;5105699;28;20379;-93
2023/08/29 17:31:55;;;;;;;2.67;1.83;;;17.90;72.10;;;;;;5101357;28;20051;-93
2023/08/29 17:34:22;;;;;;;8.27;1.98;;;17.80;72.00;;;;;;5098628;28;20040;-93
2023/08/29 17:36:49;;;;;;;2.28;1.77;;;17.80;71.90;;;;;;5111111;28;20307;-93
2023/08/29 17:39:15;;;;;;;3.05;1.42;;;17.70;72.00;;;;;;5090713;28;20029;-93
2023/08/29 17:41:41;;;;;;;3.35;2.50;;;17.70;71.90;;;;;;5090247;28;20073;-93
2023/08/29 17:44:07;;;;;;;4.45;1.80;;;17.70;72.20;;;;;;5096151;28;20055;-93
2023/08/29 17:46:32;;;;;;;2.10;1.83;;;17.60;72.30;;;;;;5088964;28;20032;-93
2023/08/29 17:48:58;;;;;;;2.55;1.58;;;17.60;72.20;;;;;;5090948;28;20035;-93
2023/08/29 17:51:24;;;;;;;2.08;1.80;;;17.60;71.90;;;;;;5110653;28;20040;-96
2023/08/29 17:53:50;;;;;;;5.53;2.15;;;17.60;72.10;;;;;;5107630;28;20047;-94
2023/08/29 17:56:16;;;;;;;2.20;1.58;;;17.50;71.90;;;;;;5108501;28;20013;-94
2023/08/29 17:58:42;;;;;;;2.35;1.70;;;17.50;72.00;;;;;;5101580;28;20024;-91
2023/08/29 18:01:08;;;;;;;5.43;1.98;;;17.40;72.30;;;;;;5110438;28;20034;-93
2023/08/29 18:03:34;;;;;;;2.25;1.85;;;17.40;72.50;;;;;;5100695;28;20083;-94
2023/08/29 18:05:59;;;;;;;2.17;1.98;;;17.30;72.60;;;;;;5097622;28;20039;-92
2023/08/29 18:08:26;;;;;;;3.47;2.10;;;17.30;72.80;;;;;;5097300;28;20024;-93
2023/08/29 18:10:53;;;;;;;2.55;1.77;;;17.30;72.60;;;;;;5091943;28;20032;-95
2023/08/29 18:13:21;;;;;;;2.00;1.73;;;17.30;73.10;;;;;;5095018;28;20028;-93
2023/08/29 18:15:50;;;;;;;2.95;2.10;;;17.10;72.20;;;;;;5091825;28;20096;-92
2023/08/29 18:18:24;;;;;;;2.10;1.90;;;17.20;72.70;;;;;;5091106;28;20024;-94
2023/08/29 18:20:55;;;;;;;1.63;1.52;;;17.20;72.70;;;;;;5099929;28;20044;-93
2023/08/29 18:23:22;;;;;;;4.35;1.85;;;17.20;72.80;;;;;;5095466;28;20035;-93
2023/08/29 18:25:55;;;;;;;3.65;2.15;;;17.10;73.00;;;;;;5099283;28;20088;-94
2023/08/29 18:28:21;;;;;;;2.45;1.95;;;17.10;73.20;;;;;;5095390;28;20028;-93
2023/08/29 18:30:47;;;;;;;2.42;1.75;;;17.10;72.80;;;;;;5090101;28;20553;-94
2023/08/29 18:33:13;;;;;;;3.13;1.95;;;17.10;72.60;;;;;;5093517;28;20040;-94
2023/08/29 18:35:42;;;;;;;6.20;2.20;;;17.10;72.60;;;;;;5105997;28;20087;-94
2023/08/29 18:38:08;;;;;;;4.32;1.95;;;17.00;72.80;;;;;;5099859;28;20091;-93
2023/08/29 18:40:34;;;;;;;2.53;1.65;;;17.00;72.70;;;;;;5092419;28;20040;-94
2023/08/29 18:43:00;;;;;;;2.60;1.65;;;17.00;72.80;;;;;;5117640;28;20034;-93
2023/08/29 18:45:26;;;;;;;1.98;1.60;;;17.00;73.00;;;;;;5096120;28;20499;-93
2023/08/29 18:47:52;;;;;;;2.28;1.98;;;16.90;73.40;;;;;;5095759;28;20028;-94
2023/08/29 18:50:19;;;;;;;1.88;1.63;;;16.90;73.50;;;;;;5101033;28;20028;-92
2023/08/29 18:52:47;;;;;;;1.85;1.63;;;16.90;73.40;;;;;;5102044;28;20057;-92
2023/08/29 18:55:13;;;;;;;2.05;1.83;;;17.00;73.50;;;;;;5097845;28;20031;-94
2023/08/29 18:57:38;;;;;;;3.20;1.85;;;16.90;73.40;;;;;;5099173;28;20019;-93
2023/08/29 19:00:10;;;;;;;2.60;1.90;;;16.90;73.10;;;;;;5102767;28;20077;-96
2023/08/29 19:02:40;;;;;;;6.05;1.80;;;16.90;73.40;;;;;;5100250;28;20043;-93
2023/08/29 19:05:07;;;;;;;2.20;1.75;;;16.90;73.60;;;;;;5100625;28;20031;-94
2023/08/29 19:07:34;;;;;;;2.45;1.85;;;16.90;73.70;;;;;;5104045;28;20048;-94
2023/08/29 19:10:00;;;;;;;3.60;1.73;;;16.90;73.60;;;;;;5106237;28;20529;-93
2023/08/29 19:12:26;;;;;;;2.67;2.08;;;16.90;73.70;;;;;;5103916;28;20020;-95
2023/08/29 19:14:53;;;;;;;2.42;1.90;;;16.90;73.60;;;;;;5104724;28;20509;-95
2023/08/29 19:17:20;;;;;;;2.10;1.90;;;16.90;73.70;;;;;;5105069;28;20019;-95
2023/08/29 19:19:46;;;;;;;2.58;2.10;;;16.90;73.60;;;;;;5102967;28;20517;-95
2023/08/29 19:22:12;;;;;;;5.57;2.22;;;16.90;73.80;;;;;;5098281;28;20032;-96
2023/08/29 19:24:39;;;;;;;3.38;2.08;;;16.80;73.70;;;;;;5103156;28;20024;-93
2023/08/29 19:27:06;;;;;;;4.53;2.00;;;16.90;73.90;;;;;;5102753;28;20024;-94
2023/08/29 19:29:33;;;;;;;2.33;2.13;;;16.90;74.00;;;;;;5098845;28;20055;-94
2023/08/29 19:31:59;;;;;;;3.25;2.10;;;16.90;74.00;;;;;;5095726;28;20110;-94
2023/08/29 19:34:25;;;;;;;2.78;2.15;;;16.90;74.00;;;;;;5103617;28;20059;-93
2023/08/29 19:36:51;;;;;;;5.07;2.13;;;16.90;74.00;;;;;;5102566;28;20028;-93
2023/08/29 19:39:17;;;;;;;3.70;2.28;;;16.90;74.10;;;;;;5101896;28;20028;-96
2023/08/29 19:41:44;;;;;;;2.50;2.30;;;16.90;74.10;;;;;;5099957;28;20501;-96
2023/08/29 19:44:10;;;;;;;4.38;3.45;;;16.90;74.20;;;;;;5103908;28;20032;-94
2023/08/29 19:46:37;;;;;;;3.25;2.55;;;16.90;74.20;;;;;;5089501;28;20031;-94
2023/08/29 19:49:04;;;;;;;3.17;2.28;;;16.90;74.20;;;;;;5106847;28;20035;-92
2023/08/29 19:51:30;;;;;;;3.47;2.38;;;16.90;74.20;;;;;;5104675;28;20027;-94
2023/08/29 19:53:56;;;;;;;2.28;2.08;;;16.90;74.10;;;;;;5101210;28;20036;-96
2023/08/29 19:56:22;;;;;;;2.78;2.08;;;16.90;74.20;;;;;;5095678;28;20100;-95
2023/08/29 19:58:48;;;;;;;3.72;2.58;;;16.90;74.20;;;;;;5098203;28;20028;-96
2023/08/29 20:01:13;;;;;;;3.72;2.28;;;16.90;74.50;;;;;;5090165;28;20054;-94
2023/08/29 20:03:39;;;;;;;2.88;2.38;;;16.90;74.20;;;;;;5081647;28;20466;-93
2023/08/29 20:06:06;;;;;;;2.83;2.53;;;16.90;74.20;;;;;;5089959;28;20482;-93
2023/08/29 20:08:32;;;;;;;3.38;2.38;;;16.90;74.20;;;;;;5090322;28;20417;-94
2023/08/29 20:11:00;;;;;;;3.08;2.50;;;16.90;74.30;;;;;;5088641;28;20032;-94
2023/08/29 20:13:26;;;;;;;3.28;2.40;;;16.90;74.40;;;;;;5084496;28;20055;-94
2023/08/29 20:15:52;;;;;;;3.33;2.42;;;16.90;74.20;;;;;;5103636;28;20016;-95
2023/08/29 20:18:17;;;;;;;5.68;2.55;;;16.90;74.30;;;;;;5101866;28;20031;-96
2023/08/29 20:20:43;;;;;;;3.05;2.40;;;16.80;74.30;;;;;;5104305;28;20031;-96
2023/08/29 20:23:10;;;;;;;5.53;2.50;;;16.90;74.20;;;;;;5108995;28;20016;-95
2023/08/29 20:25:37;;;;;;;3.60;2.63;;;16.90;74.20;;;;;;5088880;28;20080;-94
2023/08/29 20:28:04;;;;;;;3.22;2.58;;;16.90;74.60;;;;;;5085378;28;20118;-94
2023/08/29 20:30:32;;;;;;;2.47;2.28;;;16.90;74.60;;;;;;5082444;28;20467;-94
2023/08/29 20:32:58;;;;;;;4.05;2.67;;;16.90;74.60;;;;;;5083485;28;20052;-93
2023/08/29 20:35:24;;;;;;;2.33;2.13;;;16.90;74.50;;;;;;5078954;28;20353;-94
2023/08/29 20:37:50;;;;;;;8.07;3.08;;;16.90;74.30;;;;;;5082279;28;20475;-95
2023/08/29 20:40:16;;;;;;;2.97;2.55;;;16.90;74.20;;;;;;5085988;28;20032;-93
2023/08/29 20:42:42;;;;;;;3.72;2.50;;;16.90;74.40;;;;;;5080351;28;20037;-93
2023/08/29 20:45:08;;;;;;;3.53;2.92;;;16.90;74.20;;;;;;5079086;28;20363;-93
2023/08/29 20:47:37;;;;;;;3.10;2.65;;;16.90;74.30;;;;;;5083734;28;20043;-96
2023/08/29 20:50:03;;;;;;;4.93;2.80;;;16.90;74.40;;;;;;5085636;28;20033;-92
2023/08/29 20:52:29;;;;;;;2.97;2.67;;;16.90;74.50;;;;;;5079055;28;20035;-95
2023/08/29 20:54:55;;;;;;;4.75;2.85;;;16.80;74.20;;;;;;5083585;28;20023;-93
2023/08/29 20:57:21;;;;;;;4.03;3.17;;;16.90;74.40;;;;;;5083690;28;20023;-94
2023/08/29 20:59:46;;;;;;;5.50;2.90;;;16.90;74.30;;;;;;5080390;28;20036;-94
2023/08/29 21:02:12;;;;;;;5.50;2.90;;;16.90;74.30;;;;;;5075808;28;20107;-93
2023/08/29 21:04:38;;;;;;;3.40;3.10;;;16.90;74.20;;;;;;5074756;28;20032;-94
2023/08/29 21:07:05;;;;;;;3.80;3.17;;;16.80;74.20;;;;;;5073512;28;20034;-94
2023/08/29 21:09:31;;;;;;;3.83;3.22;;;16.80;74.20;;;;;;5077415;28;20028;-94
2023/08/29 21:11:57;;;;;;;4.10;3.58;;;16.80;74.20;;;;;;5087261;28;20165;-95
2023/08/29 21:14:22;;;;;;;5.47;3.50;;;16.70;74.10;;;;;;5078259;28;20574;-95
2023/08/29 21:16:48;;;;;;;4.45;3.58;;;16.80;74.20;;;;;;5079906;28;20059;-95
2023/08/29 21:19:15;;;;;;;4.60;3.17;;;16.80;74.20;;;;;;5078368;28;20036;-94
2023/08/29 21:21:41;;;;;;;3.63;3.33;;;16.70;74.10;;;;;;5083712;28;20028;-94
2023/08/29 21:24:08;;;;;;;4.57;3.53;;;16.70;74.10;;;;;;5083307;28;20042;-95
2023/08/29 21:26:34;;;;;;;3.60;3.28;;;16.60;74.40;;;;;;5077474;28;20036;-93
2023/08/29 21:29:00;;;;;;;4.45;3.63;;;16.70;74.30;;;;;;5084472;28;20503;-94
2023/08/29 21:31:26;;;;;;;5.47;4.20;;;16.70;74.30;;;;;;5083262;28;20119;-93
2023/08/29 21:33:52;;;;;;;3.97;3.67;;;16.60;74.20;;;;;;5087400;28;20127;-95
2023/08/29 21:36:18;;;;;;;5.68;4.32;;;16.60;74.30;;;;;;5088774;28;20028;-94
2023/08/29 21:38:44;;;;;;;5.35;4.43;;;16.60;74.20;;;;;;5085284;28;20046;-94
2023/08/29 21:41:10;;;;;;;5.95;5.35;;;16.60;74.40;;;;;;5083913;28;20036;-94
2023/08/29 21:43:36;;;;;;;6.10;5.22;;;16.60;74.20;;;;;;5085118;28;20082;-94
2023/08/29 21:46:06;;;;;;;6.07;5.47;;;16.60;74.20;;;;;;5084688;28;20408;-94
2023/08/29 21:48:32;;;;;;;7.45;6.00;;;16.50;74.30;;;;;;5082141;28;20520;-94
2023/08/29 21:50:58;;;;;;;6.45;5.82;;;16.50;74.40;;;;;;5078128;28;20024;-95
2023/08/29 21:53:24;;;;;;;6.13;5.53;;;16.50;74.30;;;;;;5090536;28;20100;-94
2023/08/29 21:55:51;;;;;;;7.45;5.25;;;16.50;74.50;;;;;;5086163;28;20036;-94
2023/08/29 21:58:18;;;;;;;6.32;5.70;;;16.60;74.70;;;;;;5087169;28;20058;-94
2023/08/29 22:00:51;;;;;;;6.40;5.75;;;16.40;74.80;;;;;;5086528;28;20067;-94
2023/08/29 22:03:18;;;;;;;6.85;5.20;;;16.40;75.10;;;;;;5087605;28;20111;-95
2023/08/29 22:05:44;;;;;;;7.68;5.38;;;16.40;75.00;;;;;;5083202;28;20063;-92
2023/08/29 22:08:10;;;;;;;7.50;5.63;;;16.50;74.90;;;;;;5088115;28;20023;-94
2023/08/29 22:10:36;;;;;;;6.13;5.45;;;16.50;75.20;;;;;;5088669;28;20031;-93
2023/08/29 22:13:01;;;;;;;7.15;6.13;;;16.50;75.10;;;;;;5080008;28;20035;-94
2023/08/29 22:15:27;;;;;;;7.30;6.32;;;16.50;74.90;;;;;;5092964;28;20420;-94
2023/08/29 22:17:54;;;;;;;7.35;5.50;;;16.50;74.80;;;;;;5088975;28;20059;-95
2023/08/29 22:20:20;;;;;;;5.68;4.70;;;16.50;74.80;;;;;;5086198;28;20036;-95
2023/08/29 22:22:47;;;;;;;6.38;5.13;;;16.40;74.80;;;;;;5093153;28;20028;-94
2023/08/29 22:25:12;;;;;;;6.40;5.75;;;16.50;75.30;;;;;;5090991;28;20024;-95
2023/08/29 22:27:38;;;;;;;6.28;5.68;;;16.50;75.20;;;;;;5079065;28;20054;-95
2023/08/29 22:30:05;;;;;;;6.72;5.40;;;16.50;75.20;;;;;;5084510;28;20035;-95
2023/08/29 22:32:32;;;;;;;6.15;5.28;;;16.50;75.50;;;;;;5087127;28;20024;-96
2023/08/29 22:34:58;;;;;;;7.55;5.53;;;16.50;75.20;;;;;;5088406;28;20028;-92
2023/08/29 22:37:24;;;;;;;5.15;4.70;;;16.40;75.00;;;;;;5089368;28;20184;-94
2023/08/29 22:39:50;;;;;;;6.03;5.43;;;16.50;75.30;;;;;;5085785;28;20130;-95
2023/08/29 22:42:16;;;;;;;6.68;5.10;;;16.60;75.20;;;;;;5086773;28;20538;-95
2023/08/29 22:44:43;;;;;;;6.70;5.22;;;16.60;75.20;;;;;;5082772;28;20111;-94
2023/08/29 22:47:09;;;;;;;8.13;5.70;;;16.60;75.40;;;;;;5087718;28;20023;-94
2023/08/29 22:49:35;;;;;;;6.63;5.13;;;16.60;75.60;;;;;;5078306;28;20034;-92
2023/08/29 22:52:02;;;;;;;5.95;4.95;;;16.60;75.30;;;;;;5085923;28;20036;-93
2023/08/29 22:54:30;;;;;;;7.68;5.22;;;16.60;75.80;;;;;;5089699;28;20028;-93